Time;durP1;ratioP1;P1;durP2;ratioP2;P2;SDS_P1;SDS_P2;PMS_P1;PMS_P2;Temp;Humidity;BMP_temperature;BMP_pressure;BME280_temperature;BME280_humidity;BME280_pressure;Samples;Min_cycle;Max_cycle;Signal;HPM_P1;HPM_P2
2021/05/28 00:02:21;;;;;;;1.92;1.33;;;;;;;;;;5030820;28;20021;-83
2021/05/28 00:04:47;;;;;;;2.22;1.60;;;;;;;;;;5042102;28;20026;-83
2021/05/28 00:07:14;;;;;;;1.50;1.40;;;;;;;;;;5042922;28;20025;-83
2021/05/28 00:09:40;;;;;;;2.60;1.45;;;;;;;;;;5034804;28;20029;-83
2021/05/28 00:12:06;;;;;;;1.77;1.67;;;;;;;;;;5022305;28;20037;-83
2021/05/28 00:14:32;;;;;;;1.27;1.10;;;;;;;;;;5021917;28;20467;-83
2021/05/28 00:16:59;;;;;;;1.55;1.38;;;;;;;;;;5021601;28;20029;-83
2021/05/28 00:19:25;;;;;;;1.60;1.23;;;;;;;;;;5020066;28;20064;-83
2021/05/28 00:21:51;;;;;;;0.90;0.90;;;;;;;;;;5030284;28;20052;-83
2021/05/28 00:24:18;;;;;;;2.65;2.20;;;;;;;;;;5022942;28;20061;-83
2021/05/28 00:26:44;;;;;;;1.90;1.73;;;;;;;;;;5048640;28;20021;-83
2021/05/28 00:29:10;;;;;;;2.35;1.70;;;;;;;;;;5061628;28;20082;-83
2021/05/28 00:31:36;;;;;;;2.78;1.70;;;;;;;;;;5050800;28;20038;-83
2021/05/28 00:34:02;;;;;;;1.42;1.33;;;;;;;;;;5039728;28;20060;-83
2021/05/28 00:36:28;;;;;;;1.77;1.08;;;;;;;;;;5039463;28;20021;-83
2021/05/28 00:38:54;;;;;;;1.40;1.30;;;;;;;;;;5040292;28;20496;-83
2021/05/28 00:41:20;;;;;;;1.40;1.30;;;;;;;;;;5038847;28;20030;-83
2021/05/28 00:43:47;;;;;;;2.83;1.17;;;;;;;;;;5039472;28;20033;-83
2021/05/28 00:46:13;;;;;;;1.42;1.25;;;;;;;;;;5039245;28;20281;-83
2021/05/28 00:48:39;;;;;;;1.85;1.20;;;;;;;;;;5039474;28;20096;-83
2021/05/28 00:51:06;;;;;;;2.97;1.52;;;;;;;;;;5034607;28;20034;-84
2021/05/28 00:53:32;;;;;;;1.20;1.10;;;;;;;;;;5021563;28;20033;-83
2021/05/28 00:55:59;;;;;;;1.17;1.08;;;;;;;;;;5035356;28;20339;-83
2021/05/28 00:58:26;;;;;;;1.10;1.10;;;;;;;;;;5050485;28;20462;-84
2021/05/28 01:00:52;;;;;;;2.47;1.73;;;;;;;;;;5054319;28;20021;-83
2021/05/28 01:03:18;;;;;;;1.58;1.48;;;;;;;;;;5035851;28;20057;-84
2021/05/28 01:05:44;;;;;;;1.42;1.17;;;;;;;;;;5039108;28;20053;-81
2021/05/28 01:08:11;;;;;;;1.52;1.00;;;;;;;;;;5038300;28;20083;-82
2021/05/28 01:10:37;;;;;;;0.98;0.98;;;;;;;;;;5039587;28;20486;-82
2021/05/28 01:13:04;;;;;;;0.85;0.85;;;;;;;;;;5023056;28;20038;-83
2021/05/28 01:15:30;;;;;;;1.35;0.80;;;;;;;;;;5019794;28;20025;-82
2021/05/28 01:17:56;;;;;;;0.80;0.80;;;;;;;;;;5017102;28;20372;-82
2021/05/28 01:20:22;;;;;;;1.73;1.30;;;;;;;;;;5017158;28;20018;-82
2021/05/28 01:22:48;;;;;;;1.02;0.88;;;;;;;;;;5026138;28;20547;-82
2021/05/28 01:25:15;;;;;;;1.20;1.10;;;;;;;;;;5033792;28;20056;-83
2021/05/28 01:27:41;;;;;;;1.45;1.08;;;;;;;;;;5047817;28;20060;-83
2021/05/28 01:30:07;;;;;;;1.38;1.00;;;;;;;;;;5056825;28;20025;-83
2021/05/28 01:32:33;;;;;;;1.88;1.20;;;;;;;;;;5058934;28;20034;-81
2021/05/28 01:34:59;;;;;;;1.17;1.08;;;;;;;;;;5056683;28;20034;-82
2021/05/28 01:37:25;;;;;;;1.02;0.95;;;;;;;;;;5056815;28;20032;-82
2021/05/28 01:39:53;;;;;;;2.15;0.90;;;;;;;;;;5056268;28;20034;-82
2021/05/28 01:42:19;;;;;;;1.55;1.10;;;;;;;;;;5054090;28;21314;-82
2021/05/28 01:44:46;;;;;;;0.95;0.85;;;;;;;;;;5037084;28;20041;-82
2021/05/28 01:47:12;;;;;;;1.15;0.90;;;;;;;;;;5036888;28;20041;-82
2021/05/28 01:49:43;;;;;;;1.20;1.10;;;;;;;;;;5036958;28;20026;-82
2021/05/28 01:52:09;;;;;;;1.15;1.10;;;;;;;;;;5050903;28;20010;-82
2021/05/28 01:54:38;;;;;;;2.05;1.25;;;;;;;;;;5055948;28;20034;-82
2021/05/28 01:57:05;;;;;;;1.27;1.17;;;;;;;;;;5095237;22;20044;-78
2021/05/28 01:59:31;;;;;;;1.13;0.93;;;;;;;;;;5058729;28;20022;-78
2021/05/28 02:01:57;;;;;;;1.13;1.00;;;;;;;;;;5058349;28;20090;-78
2021/05/28 02:04:24;;;;;;;1.55;1.17;;;;;;;;;;5057814;28;20028;-79
2021/05/28 02:06:51;;;;;;;0.90;0.90;;;;;;;;;;5057049;28;20092;-79
2021/05/28 02:09:17;;;;;;;1.27;1.02;;;;;;;;;;5056657;28;20009;-80
2021/05/28 02:11:43;;;;;;;0.80;0.80;;;;;;;;;;5052306;28;20030;-79
2021/05/28 02:14:10;;;;;;;2.15;1.00;;;;;;;;;;5037846;28;20045;-78
2021/05/28 02:16:36;;;;;;;1.45;0.93;;;;;;;;;;5037142;28;20013;-78
2021/05/28 02:19:02;;;;;;;2.42;0.90;;;;;;;;;;5035868;28;20036;-79
2021/05/28 02:21:29;;;;;;;1.83;1.02;;;;;;;;;;5035095;28;20099;-79
2021/05/28 02:23:55;;;;;;;1.48;0.98;;;;;;;;;;5053062;28;20040;-79
2021/05/28 02:26:21;;;;;;;0.55;0.55;;;;;;;;;;5043170;28;20018;-80
2021/05/28 02:28:47;;;;;;;0.93;0.90;;;;;;;;;;5048131;28;20009;-79
2021/05/28 02:31:13;;;;;;;0.90;0.90;;;;;;;;;;5041114;28;20022;-80
2021/05/28 02:33:39;;;;;;;1.20;1.10;;;;;;;;;;5033340;28;20085;-79
2021/05/28 02:36:06;;;;;;;0.70;0.70;;;;;;;;;;5032755;28;20359;-80
2021/05/28 02:38:32;;;;;;;3.50;1.10;;;;;;;;;;5031485;28;20026;-80
2021/05/28 02:40:58;;;;;;;0.60;0.57;;;;;;;;;;5037488;28;20022;-78
2021/05/28 02:43:25;;;;;;;0.60;0.60;;;;;;;;;;5031570;28;20046;-78
2021/05/28 02:45:51;;;;;;;1.10;1.10;;;;;;;;;;5031873;28;20041;-79
2021/05/28 02:48:17;;;;;;;1.15;0.90;;;;;;;;;;5034488;28;20017;-78
2021/05/28 02:50:43;;;;;;;1.30;1.10;;;;;;;;;;5037519;28;20045;-78
2021/05/28 02:53:10;;;;;;;1.30;0.90;;;;;;;;;;5057556;28;20033;-78
2021/05/28 02:55:38;;;;;;;0.98;0.90;;;;;;;;;;5052232;28;20009;-79
2021/05/28 02:58:04;;;;;;;0.70;0.70;;;;;;;;;;5047367;28;20014;-78
2021/05/28 03:00:30;;;;;;;0.88;0.88;;;;;;;;;;5034704;28;20066;-79
2021/05/28 03:02:56;;;;;;;0.70;0.70;;;;;;;;;;5048976;28;20032;-80
2021/05/28 03:05:22;;;;;;;0.85;0.75;;;;;;;;;;5053104;28;20303;-78
2021/05/28 03:07:48;;;;;;;1.40;1.10;;;;;;;;;;5037291;28;20025;-79
2021/05/28 03:10:14;;;;;;;1.20;1.10;;;;;;;;;;5056900;28;20510;-78
2021/05/28 03:12:40;;;;;;;2.20;1.00;;;;;;;;;;5044505;28;20052;-78
2021/05/28 03:15:07;;;;;;;1.30;1.00;;;;;;;;;;5036502;28;20055;-78
2021/05/28 03:17:33;;;;;;;0.95;0.90;;;;;;;;;;5035409;28;20054;-78
2021/05/28 03:20:00;;;;;;;1.35;0.90;;;;;;;;;;5036145;28;20032;-79
2021/05/28 03:22:33;;;;;;;1.48;1.15;;;;;;;;;;5041823;28;20024;-78
2021/05/28 03:25:05;;;;;;;1.65;0.98;;;;;;;;;;5048658;28;20010;-80
2021/05/28 03:27:31;;;;;;;1.25;1.05;;;;;;;;;;5043893;28;20101;-79
2021/05/28 03:29:58;;;;;;;0.80;0.80;;;;;;;;;;5051315;28;20096;-79
2021/05/28 03:32:24;;;;;;;0.90;0.85;;;;;;;;;;5054935;28;20021;-79
2021/05/28 03:34:50;;;;;;;2.65;1.08;;;;;;;;;;5057134;28;20048;-78
2021/05/28 03:37:16;;;;;;;1.73;1.42;;;;;;;;;;5057060;28;20018;-78
2021/05/28 03:39:45;;;;;;;2.75;2.10;;;;;;;;;;5055974;28;20062;-78
2021/05/28 03:42:11;;;;;;;1.92;1.50;;;;;;;;;;5040734;28;20069;-77
2021/05/28 03:44:37;;;;;;;1.65;1.50;;;;;;;;;;5036011;28;20029;-78
2021/05/28 03:47:03;;;;;;;2.67;1.30;;;;;;;;;;5033452;28;20106;-79
2021/05/28 03:49:29;;;;;;;1.98;1.50;;;;;;;;;;5031022;28;20057;-79
2021/05/28 03:51:55;;;;;;;1.52;0.95;;;;;;;;;;5030928;28;20034;-80
2021/05/28 03:54:22;;;;;;;1.23;1.10;;;;;;;;;;5030170;28;20030;-78
2021/05/28 03:56:48;;;;;;;5.18;1.27;;;;;;;;;;5040354;28;20041;-78
2021/05/28 03:59:14;;;;;;;0.88;0.88;;;;;;;;;;5049771;28;20033;-79
2021/05/28 04:01:40;;;;;;;2.00;1.52;;;;;;;;;;5051117;28;20025;-79
2021/05/28 04:04:07;;;;;;;1.35;1.02;;;;;;;;;;5051320;28;20394;-81
2021/05/28 04:06:33;;;;;;;1.23;1.10;;;;;;;;;;5050256;28;20029;-79
2021/05/28 04:08:59;;;;;;;1.25;1.15;;;;;;;;;;5051399;28;20025;-78
2021/05/28 04:11:25;;;;;;;1.10;1.05;;;;;;;;;;5049173;28;20029;-79
2021/05/28 04:13:52;;;;;;;1.70;0.88;;;;;;;;;;5029903;28;20036;-80
2021/05/28 04:16:18;;;;;;;0.90;0.90;;;;;;;;;;5031327;28;20097;-79
2021/05/28 04:18:44;;;;;;;2.35;1.88;;;;;;;;;;5029293;28;20453;-78
2021/05/28 04:21:10;;;;;;;2.80;1.40;;;;;;;;;;5041058;28;20037;-79
2021/05/28 04:23:37;;;;;;;3.15;1.30;;;;;;;;;;5045405;28;20423;-78
2021/05/28 04:26:14;;;;;;;1.30;1.20;;;;;;;;;;5021125;28;20036;-79
2021/05/28 04:28:41;;;;;;;0.90;0.90;;;;;;;;;;5040540;28;20340;-79
2021/05/28 04:31:08;;;;;;;1.10;1.10;;;;;;;;;;5039308;28;20034;-81
2021/05/28 04:33:35;;;;;;;1.17;1.08;;;;;;;;;;5032583;28;20049;-79
2021/05/28 04:36:01;;;;;;;1.90;1.27;;;;;;;;;;5014794;28;20018;-78
2021/05/28 04:38:27;;;;;;;1.17;1.05;;;;;;;;;;5028315;28;20014;-79
2021/05/28 04:40:54;;;;;;;1.45;1.10;;;;;;;;;;5047228;28;20503;-80
2021/05/28 04:43:21;;;;;;;1.85;1.25;;;;;;;;;;5047300;28;20049;-79
2021/05/28 04:45:47;;;;;;;1.33;1.02;;;;;;;;;;5051530;28;20009;-77
2021/05/28 04:48:14;;;;;;;0.95;0.80;;;;;;;;;;5052354;28;20163;-79
2021/05/28 04:50:40;;;;;;;1.35;1.10;;;;;;;;;;5030438;28;20030;-80
2021/05/28 04:53:07;;;;;;;1.02;0.95;;;;;;;;;;5025570;28;20021;-79
2021/05/28 04:55:33;;;;;;;1.38;1.00;;;;;;;;;;5035183;28;20041;-80
2021/05/28 04:57:59;;;;;;;1.63;0.90;;;;;;;;;;5031423;28;20044;-79
2021/05/28 05:00:26;;;;;;;1.45;1.10;;;;;;;;;;5037341;28;20029;-79
2021/05/28 05:02:52;;;;;;;1.30;1.17;;;;;;;;;;5047014;28;20021;-79
2021/05/28 05:05:19;;;;;;;1.50;1.38;;;;;;;;;;5047873;28;20033;-79
2021/05/28 05:07:45;;;;;;;1.45;1.20;;;;;;;;;;5043913;28;20139;-80
2021/05/28 05:10:12;;;;;;;1.20;1.10;;;;;;;;;;5027328;28;20419;-79
2021/05/28 05:12:39;;;;;;;1.45;1.33;;;;;;;;;;5026015;28;20056;-79
2021/05/28 05:15:05;;;;;;;1.05;1.00;;;;;;;;;;5026527;28;20033;-80
2021/05/28 05:17:31;;;;;;;1.38;1.27;;;;;;;;;;5028324;28;20041;-78
2021/05/28 05:19:57;;;;;;;1.30;1.20;;;;;;;;;;5044054;28;20036;-80
2021/05/28 05:22:23;;;;;;;1.02;1.00;;;;;;;;;;5047644;28;20021;-81
2021/05/28 05:24:50;;;;;;;0.75;0.75;;;;;;;;;;5042112;28;20044;-80
2021/05/28 05:27:16;;;;;;;1.15;1.02;;;;;;;;;;5041260;28;20021;-79
2021/05/28 05:29:42;;;;;;;0.95;0.93;;;;;;;;;;5049429;28;20017;-80
2021/05/28 05:32:08;;;;;;;11.23;2.13;;;;;;;;;;5054398;28;20039;-79
2021/05/28 05:34:34;;;;;;;1.10;1.00;;;;;;;;;;5053936;28;20501;-80
2021/05/28 05:37:02;;;;;;;1.98;1.65;;;;;;;;;;5055154;28;20044;-79
2021/05/28 05:39:31;;;;;;;3.13;1.30;;;;;;;;;;5039438;28;20138;-79
2021/05/28 05:41:57;;;;;;;0.95;0.93;;;;;;;;;;5033832;28;20064;-78
2021/05/28 05:44:23;;;;;;;2.97;1.35;;;;;;;;;;5042943;28;20021;-79
2021/05/28 05:46:49;;;;;;;2.05;1.35;;;;;;;;;;5037217;28;20081;-78
2021/05/28 05:49:16;;;;;;;1.35;1.25;;;;;;;;;;5039663;28;20081;-78
2021/05/28 05:51:42;;;;;;;2.40;1.35;;;;;;;;;;5038607;28;20110;-79
2021/05/28 05:54:08;;;;;;;2.35;1.50;;;;;;;;;;5038019;28;20045;-80
2021/05/28 05:56:35;;;;;;;1.48;1.08;;;;;;;;;;5046449;28;20021;-78
2021/05/28 05:59:01;;;;;;;1.27;0.93;;;;;;;;;;5054941;28;20021;-78
2021/05/28 06:01:27;;;;;;;1.50;0.90;;;;;;;;;;5059132;28;20040;-78
2021/05/28 06:03:53;;;;;;;2.00;1.00;;;;;;;;;;5055352;28;20034;-79
2021/05/28 06:06:19;;;;;;;1.63;0.82;;;;;;;;;;5055611;28;20159;-77
2021/05/28 06:08:45;;;;;;;0.90;0.70;;;;;;;;;;5057513;28;20037;-79
2021/05/28 06:11:12;;;;;;;1.20;0.80;;;;;;;;;;5058271;28;20033;-78
2021/05/28 06:13:39;;;;;;;0.65;0.65;;;;;;;;;;5056880;28;20037;-78
2021/05/28 06:16:05;;;;;;;0.70;0.70;;;;;;;;;;5053592;28;20033;-80
2021/05/28 06:18:31;;;;;;;1.15;0.70;;;;;;;;;;5034627;28;20030;-80
2021/05/28 06:20:58;;;;;;;1.17;0.98;;;;;;;;;;5029174;28;20090;-80
2021/05/28 06:23:24;;;;;;;0.55;0.55;;;;;;;;;;5046296;28;20013;-78
2021/05/28 06:25:50;;;;;;;0.70;0.70;;;;;;;;;;5036297;28;20041;-78
2021/05/28 06:28:16;;;;;;;0.60;0.60;;;;;;;;;;5047721;28;20014;-78
2021/05/28 06:30:42;;;;;;;1.55;1.33;;;;;;;;;;5057262;28;20052;-79
2021/05/28 06:33:09;;;;;;;0.98;0.88;;;;;;;;;;5055671;28;20025;-79
2021/05/28 06:35:36;;;;;;;8.80;2.50;;;;;;;;;;5057344;28;20025;-79
2021/05/28 06:38:02;;;;;;;1.10;0.93;;;;;;;;;;5043574;28;20013;-81
2021/05/28 06:40:28;;;;;;;1.00;1.00;;;;;;;;;;5034030;28;20090;-82
2021/05/28 06:42:55;;;;;;;0.82;0.82;;;;;;;;;;5035466;28;20040;-80
2021/05/28 06:45:22;;;;;;;1.13;1.00;;;;;;;;;;5035105;28;20061;-82
2021/05/28 06:47:48;;;;;;;1.42;1.08;;;;;;;;;;5036115;28;20068;-81
2021/05/28 06:50:15;;;;;;;2.72;1.10;;;;;;;;;;5036104;28;20052;-82
2021/05/28 06:52:42;;;;;;;0.90;0.90;;;;;;;;;;5035561;28;20014;-81
2021/05/28 06:55:08;;;;;;;2.78;1.20;;;;;;;;;;5033509;28;20026;-82
2021/05/28 06:57:34;;;;;;;0.80;0.80;;;;;;;;;;5047733;28;20053;-81
2021/05/28 07:00:01;;;;;;;1.25;0.90;;;;;;;;;;5053139;28;20036;-81
2021/05/28 07:02:28;;;;;;;3.80;1.80;;;;;;;;;;5046011;28;20071;-80
2021/05/28 07:04:54;;;;;;;1.05;0.95;;;;;;;;;;5046512;28;20049;-81
2021/05/28 07:07:20;;;;;;;2.67;1.42;;;;;;;;;;5049458;28;20052;-82
2021/05/28 07:09:46;;;;;;;0.90;0.90;;;;;;;;;;5049662;28;20022;-81
2021/05/28 07:12:13;;;;;;;1.45;0.85;;;;;;;;;;5051716;28;20125;-82
2021/05/28 07:14:39;;;;;;;0.88;0.88;;;;;;;;;;5056656;28;20025;-81
2021/05/28 07:17:05;;;;;;;1.35;0.70;;;;;;;;;;5057902;28;20033;-79
2021/05/28 07:19:31;;;;;;;0.77;0.70;;;;;;;;;;5057156;28;20025;-79
2021/05/28 07:21:57;;;;;;;0.90;0.90;;;;;;;;;;5057585;28;20067;-79
2021/05/28 07:24:23;;;;;;;1.85;1.48;;;;;;;;;;5055541;28;20077;-79
2021/05/28 07:26:50;;;;;;;1.40;1.10;;;;;;;;;;5044906;28;20014;-80
2021/05/28 07:29:16;;;;;;;2.15;1.52;;;;;;;;;;5053895;28;20045;-81
2021/05/28 07:31:43;;;;;;;2.17;1.58;;;;;;;;;;5053985;28;20028;-81
2021/05/28 07:34:09;;;;;;;1.63;1.10;;;;;;;;;;5053909;28;20037;-81
2021/05/28 07:36:35;;;;;;;1.15;1.05;;;;;;;;;;5052144;28;20033;-81
2021/05/28 07:39:01;;;;;;;0.82;0.82;;;;;;;;;;5033855;28;20022;-80
2021/05/28 07:41:28;;;;;;;0.73;0.68;;;;;;;;;;5032226;28;20038;-80
2021/05/28 07:43:54;;;;;;;0.75;0.60;;;;;;;;;;5032540;28;20085;-80
2021/05/28 07:46:20;;;;;;;1.80;1.20;;;;;;;;;;5032408;28;20064;-80
2021/05/28 07:48:46;;;;;;;1.67;1.58;;;;;;;;;;5032408;28;20025;-81
2021/05/28 07:51:15;;;;;;;2.00;1.60;;;;;;;;;;5033477;28;20030;-81
2021/05/28 07:53:41;;;;;;;1.48;1.38;;;;;;;;;;5031733;28;20103;-81
2021/05/28 07:56:08;;;;;;;2.60;2.17;;;;;;;;;;5057434;22;20045;-83
2021/05/28 07:58:34;;;;;;;1.90;1.80;;;;;;;;;;5062494;28;20029;-83
2021/05/28 08:01:00;;;;;;;2.70;1.73;;;;;;;;;;5062758;28;20067;-84
2021/05/28 08:03:26;;;;;;;1.63;1.52;;;;;;;;;;5062576;28;20035;-84
2021/05/28 08:05:52;;;;;;;2.75;2.22;;;;;;;;;;5064331;28;20028;-83
2021/05/28 08:08:19;;;;;;;2.17;1.77;;;;;;;;;;5065162;28;20130;-84
2021/05/28 08:10:46;;;;;;;2.40;1.80;;;;;;;;;;5067433;28;20021;-84
2021/05/28 08:13:12;;;;;;;4.15;2.58;;;;;;;;;;5064353;28;20025;-83
2021/05/28 08:15:38;;;;;;;4.75;1.70;;;;;;;;;;5065409;28;20025;-83
2021/05/28 08:18:05;;;;;;;1.92;1.60;;;;;;;;;;5066110;28;20024;-83
2021/05/28 08:20:31;;;;;;;2.28;1.30;;;;;;;;;;5065837;28;20045;-85
2021/05/28 08:22:59;;;;;;;2.70;1.80;;;;;;;;;;5068501;28;20079;-84
2021/05/28 08:25:25;;;;;;;2.97;2.75;;;;;;;;;;5072874;28;20052;-84
2021/05/28 08:27:52;;;;;;;2.35;2.15;;;;;;;;;;5071313;28;20032;-83
2021/05/28 08:30:18;;;;;;;2.53;2.22;;;;;;;;;;5072103;28;20081;-83
2021/05/28 08:32:44;;;;;;;2.38;1.90;;;;;;;;;;5067216;28;20045;-83
2021/05/28 08:35:11;;;;;;;4.68;1.92;;;;;;;;;;5068173;28;20055;-83
2021/05/28 08:37:37;;;;;;;6.82;3.28;;;;;;;;;;5076861;28;20027;-83
2021/05/28 08:40:04;;;;;;;2.13;1.90;;;;;;;;;;5088849;28;20152;-82
2021/05/28 08:42:30;;;;;;;3.47;2.58;;;;;;;;;;5083777;28;20013;-83
2021/05/28 08:44:57;;;;;;;3.58;2.42;;;;;;;;;;5067390;28;20033;-83
2021/05/28 08:47:23;;;;;;;4.53;2.03;;;;;;;;;;5064191;28;20089;-82
2021/05/28 08:49:51;;;;;;;3.22;2.88;;;;;;;;;;5064437;28;20060;-82
2021/05/28 08:52:17;;;;;;;3.63;2.08;;;;;;;;;;5060152;28;20070;-82
2021/05/28 08:54:43;;;;;;;2.30;1.60;;;;;;;;;;5058656;28;20036;-81
2021/05/28 08:57:10;;;;;;;1.40;1.30;;;;;;;;;;5074499;28;20701;-81
2021/05/28 08:59:37;;;;;;;3.00;2.22;;;;;;;;;;5089106;28;20021;-81
2021/05/28 09:02:03;;;;;;;2.85;1.90;;;;;;;;;;5079902;28;20028;-81
2021/05/28 09:04:29;;;;;;;4.60;2.45;;;;;;;;;;5078715;28;20025;-82
2021/05/28 09:06:55;;;;;;;3.97;2.90;;;;;;;;;;5078929;28;20024;-82
2021/05/28 09:09:27;;;;;;;2.75;1.83;;;;;;;;;;5077636;28;20063;-81
2021/05/28 09:12:01;;;;;;;1.02;1.02;;;;;;;;;;5079636;28;20048;-81
2021/05/28 09:14:30;;;;;;;6.03;2.72;;;;;;;;;;5077907;28;20105;-82
2021/05/28 09:16:56;;;;;;;2.25;1.88;;;;;;;;;;5065985;28;20020;-82
2021/05/28 09:19:23;;;;;;;4.70;1.50;;;;;;;;;;5068990;28;20012;-82
2021/05/28 09:22:15;;;;;;;2.67;1.45;;;;;;;;;;5078386;28;20021;-82
2021/05/28 09:24:41;;;;;;;;;;;;;;;;;;5059960;28;20064;-82
2021/05/28 09:27:22;;;;;;;4.25;2.20;;;;;;;;;;5067753;28;19904;-82
2021/05/28 09:30:05;;;;;;;2.22;1.80;;;;;;;;;;5061019;28;20021;-83
2021/05/28 09:32:31;;;;;;;2.70;1.88;;;;;;;;;;5060514;28;20017;-83
2021/05/28 09:34:58;;;;;;;1.50;1.20;;;;;;;;;;5058597;28;20025;-82
2021/05/28 09:37:39;;;;;;;0.98;0.88;;;;;;;;;;5056763;28;20378;-83
2021/05/28 09:40:10;;;;;;;2.17;1.48;;;;;;;;;;5038285;28;20045;-82
2021/05/28 09:42:49;;;;;;;2.92;1.90;;;;;;;;;;5037899;28;20120;-82
2021/05/28 09:45:29;;;;;;;2.63;1.52;;;;;;;;;;5038505;28;20025;-84
2021/05/28 09:47:55;;;;;;;3.65;1.52;;;;;;;;;;5059354;28;20059;-82
2021/05/28 09:50:21;;;;;;;2.33;1.85;;;;;;;;;;5058612;28;20096;-84
2021/05/28 09:52:49;;;;;;;3.15;1.90;;;;;;;;;;5057204;28;20441;-82
2021/05/28 09:55:15;;;;;;;3.50;2.08;;;;;;;;;;5062387;28;20018;-81
2021/05/28 09:57:49;;;;;;;5.00;2.80;;;;;;;;;;5069351;28;20048;-81
2021/05/28 10:00:21;;;;;;;3.40;2.05;;;;;;;;;;5063476;28;20488;-82
2021/05/28 10:02:47;;;;;;;5.22;3.03;;;;;;;;;;5057853;28;20032;-81
2021/05/28 10:05:23;;;;;;;4.38;2.00;;;;;;;;;;5039620;28;20165;-82
2021/05/28 10:07:50;;;;;;;3.40;2.22;;;;;;;;;;5049791;28;20123;-81
2021/05/28 10:10:16;;;;;;;4.05;2.53;;;;;;;;;;5059419;28;20024;-82
2021/05/28 10:12:43;;;;;;;3.17;2.22;;;;;;;;;;5059107;28;20021;-82
2021/05/28 10:15:12;;;;;;;2.70;2.40;;;;;;;;;;5057694;28;20017;-83
2021/05/28 10:17:38;;;;;;;2.92;2.28;;;;;;;;;;5060323;28;20096;-83
2021/05/28 10:20:06;;;;;;;1.95;1.85;;;;;;;;;;5063358;28;20456;-81
2021/05/28 10:22:33;;;;;;;2.30;2.10;;;;;;;;;;5062103;28;20362;-82
2021/05/28 10:25:01;;;;;;;2.83;1.88;;;;;;;;;;5062696;28;20029;-81
2021/05/28 10:27:27;;;;;;;3.20;1.90;;;;;;;;;;5067398;28;20033;-82
2021/05/28 10:29:54;;;;;;;1.98;1.77;;;;;;;;;;5059621;28;20072;-81
2021/05/28 10:32:20;;;;;;;1.85;1.30;;;;;;;;;;5061567;28;20036;-82
2021/05/28 10:35:05;;;;;;;1.65;1.13;;;;;;;;;;5060885;28;20036;-82
2021/05/28 10:37:34;;;;;;;1.75;1.50;;;;;;;;;;5062113;28;20084;-82
2021/05/28 10:40:00;;;;;;;3.10;2.60;;;;;;;;;;5061461;28;20042;-82
2021/05/28 10:42:26;;;;;;;5.35;2.17;;;;;;;;;;5061053;28;20078;-82
2021/05/28 10:44:52;;;;;;;2.45;1.60;;;;;;;;;;5059605;28;20021;-82
2021/05/28 10:47:19;;;;;;;4.13;2.83;;;;;;;;;;5059833;28;20036;-82
2021/05/28 10:49:45;;;;;;;3.60;2.58;;;;;;;;;;5060387;28;20052;-81
2021/05/28 10:52:13;;;;;;;1.83;1.67;;;;;;;;;;5061160;28;20100;-81
2021/05/28 10:54:43;;;;;;;2.47;1.60;;;;;;;;;;5059305;28;20060;-82
2021/05/28 10:57:26;;;;;;;2.70;2.42;;;;;;;;;;5075406;28;20072;-81
2021/05/28 10:59:54;;;;;;;1.42;1.33;;;;;;;;;;5059490;28;20055;-82
2021/05/28 11:02:39;;;;;;;2.85;1.48;;;;;;;;;;5060017;28;20017;-82
2021/05/28 11:05:05;;;;;;;1.02;0.77;;;;;;;;;;5060922;28;20094;-82
2021/05/28 11:07:35;;;;;;;2.00;1.60;;;;;;;;;;5060688;28;20477;-82
2021/05/28 11:10:21;;;;;;;3.85;2.78;;;;;;;;;;5060209;28;20036;-82
2021/05/28 11:12:47;;;;;;;3.30;2.05;;;;;;;;;;5042071;28;20037;-82
2021/05/28 11:15:15;;;;;;;2.10;1.63;;;;;;;;;;5060010;28;20032;-83
2021/05/28 11:17:58;;;;;;;1.98;1.77;;;;;;;;;;5061007;28;20024;-83
2021/05/28 11:20:26;;;;;;;3.55;2.80;;;;;;;;;;5060951;28;20112;-82
2021/05/28 11:22:53;;;;;;;4.75;2.20;;;;;;;;;;5057315;28;20025;-81
2021/05/28 11:25:20;;;;;;;1.70;1.60;;;;;;;;;;5060647;28;20017;-82
2021/05/28 11:27:51;;;;;;;1.60;1.50;;;;;;;;;;5066702;28;20021;-83
2021/05/28 11:30:17;;;;;;;4.25;2.20;;;;;;;;;;5059350;28;20017;-82
2021/05/28 11:32:43;;;;;;;2.03;1.67;;;;;;;;;;5060330;28;20032;-82
2021/05/28 11:35:24;;;;;;;4.82;2.28;;;;;;;;;;5062044;28;20020;-82
2021/05/28 11:37:56;;;;;;;2.55;2.35;;;;;;;;;;5059086;28;20045;-82
2021/05/28 11:40:26;;;;;;;2.17;1.77;;;;;;;;;;5060685;28;20441;-82
2021/05/28 11:42:53;;;;;;;3.22;1.80;;;;;;;;;;5060657;28;20028;-82
2021/05/28 11:45:20;;;;;;;2.25;1.20;;;;;;;;;;5059253;28;20036;-82
2021/05/28 11:47:49;;;;;;;1.10;1.10;;;;;;;;;;5061158;28;20036;-82
2021/05/28 11:50:17;;;;;;;4.57;2.90;;;;;;;;;;5060746;28;20028;-82
2021/05/28 11:53:04;;;;;;;2.80;2.47;;;;;;;;;;5058454;28;20029;-82
2021/05/28 11:55:31;;;;;;;2.78;2.00;;;;;;;;;;5065607;28;20034;-82
2021/05/28 11:58:04;;;;;;;3.20;2.05;;;;;;;;;;5071424;28;20033;-83
2021/05/28 12:00:31;;;;;;;3.55;1.77;;;;;;;;;;5062568;28;20099;-81
2021/05/28 12:02:58;;;;;;;1.65;1.55;;;;;;;;;;5061063;28;20099;-80
2021/05/28 12:05:29;;;;;;;3.33;2.60;;;;;;;;;;5061713;28;20033;-82
2021/05/28 12:07:58;;;;;;;2.60;2.40;;;;;;;;;;5060955;28;20025;-83
2021/05/28 12:10:24;;;;;;;3.50;2.90;;;;;;;;;;5062832;28;20025;-82
2021/05/28 12:13:00;;;;;;;2.30;1.80;;;;;;;;;;5063605;28;20025;-83
2021/05/28 12:15:34;;;;;;;3.33;2.05;;;;;;;;;;5062899;28;20513;-83
2021/05/28 12:18:03;;;;;;;3.00;2.70;;;;;;;;;;5064013;28;20179;-83
2021/05/28 12:20:31;;;;;;;3.97;2.70;;;;;;;;;;5063648;28;20647;-83
2021/05/28 12:23:00;;;;;;;2.05;1.70;;;;;;;;;;5065025;28;20053;-82
2021/05/28 12:25:27;;;;;;;6.10;3.38;;;;;;;;;;5070610;28;20024;-82
2021/05/28 12:27:53;;;;;;;2.75;1.83;;;;;;;;;;5074749;28;20500;-83
2021/05/28 12:30:26;;;;;;;2.00;1.90;;;;;;;;;;5061241;28;20029;-82
2021/05/28 12:32:53;;;;;;;3.95;2.20;;;;;;;;;;5060387;28;20033;-82
2021/05/28 12:35:21;;;;;;;3.13;2.10;;;;;;;;;;5059757;28;20035;-83
2021/05/28 12:38:02;;;;;;;2.53;1.83;;;;;;;;;;5059722;28;20108;-83
2021/05/28 12:40:29;;;;;;;2.50;2.28;;;;;;;;;;5057713;28;20033;-82
2021/05/28 12:42:58;;;;;;;3.22;1.92;;;;;;;;;;5060359;28;20363;-83
2021/05/28 12:45:33;;;;;;;1.60;1.50;;;;;;;;;;5061379;28;20061;-83
2021/05/28 12:47:59;;;;;;;2.35;2.13;;;;;;;;;;5060723;28;20033;-83
2021/05/28 12:50:33;;;;;;;2.90;2.35;;;;;;;;;;5062388;28;20497;-83
2021/05/28 12:53:00;;;;;;;4.45;2.78;;;;;;;;;;5063266;28;20102;-83
2021/05/28 12:55:36;;;;;;;2.53;2.00;;;;;;;;;;5067875;28;20021;-82
2021/05/28 12:58:02;;;;;;;5.30;2.38;;;;;;;;;;5073584;28;20042;-82
2021/05/28 13:00:35;;;;;;;3.10;2.17;;;;;;;;;;5080691;28;20033;-82
2021/05/28 13:03:02;;;;;;;2.20;1.90;;;;;;;;;;5080052;28;20020;-83
2021/05/28 13:05:35;;;;;;;2.75;2.40;;;;;;;;;;5080570;28;20024;-83
2021/05/28 13:08:03;;;;;;;2.75;2.50;;;;;;;;;;5072785;28;20021;-82
2021/05/28 13:10:29;;;;;;;2.20;2.00;;;;;;;;;;5061460;28;20025;-81
2021/05/28 13:13:16;;;;;;;4.93;2.60;;;;;;;;;;5061479;28;20029;-81
2021/05/28 13:15:42;;;;;;;4.18;2.00;;;;;;;;;;5063878;28;20018;-82
2021/05/28 13:18:09;;;;;;;6.38;2.75;;;;;;;;;;5063057;28;20017;-82
2021/05/28 13:20:36;;;;;;;2.03;1.80;;;;;;;;;;5064734;28;20080;-82
2021/05/28 13:23:15;;;;;;;2.97;2.20;;;;;;;;;;5063411;28;20067;-82
2021/05/28 13:25:42;;;;;;;6.63;2.10;;;;;;;;;;5063169;28;20029;-81
2021/05/28 13:28:22;;;;;;;2.75;2.20;;;;;;;;;;5069395;28;20497;-81
2021/05/28 13:30:48;;;;;;;4.22;1.73;;;;;;;;;;5057617;28;20051;-82
2021/05/28 13:33:15;;;;;;;1.58;1.33;;;;;;;;;;5058746;28;20060;-83
2021/05/28 13:35:41;;;;;;;1.58;1.48;;;;;;;;;;5059025;28;20017;-82
2021/05/28 13:38:07;;;;;;;1.30;1.13;;;;;;;;;;5060238;28;20478;-81
2021/05/28 13:40:34;;;;;;;2.35;1.75;;;;;;;;;;5060013;28;20022;-81
2021/05/28 13:43:00;;;;;;;2.28;2.08;;;;;;;;;;5059765;28;20029;-83
2021/05/28 13:45:26;;;;;;;2.58;2.33;;;;;;;;;;5059822;28;20025;-81
2021/05/28 13:47:52;;;;;;;1.90;1.80;;;;;;;;;;5058603;28;20017;-82
2021/05/28 13:50:18;;;;;;;3.83;2.28;;;;;;;;;;5060360;28;20037;-82
2021/05/28 13:52:44;;;;;;;3.17;2.10;;;;;;;;;;5062397;28;20100;-81
2021/05/28 13:55:11;;;;;;;4.70;2.30;;;;;;;;;;5065153;28;20025;-82
2021/05/28 13:57:37;;;;;;;8.45;2.25;;;;;;;;;;5079335;28;20024;-80
2021/05/28 14:00:07;;;;;;;9.07;2.30;;;;;;;;;;5087249;28;20005;-80
2021/05/28 14:02:33;;;;;;;2.85;1.70;;;;;;;;;;5086257;28;20457;-80
2021/05/28 14:04:59;;;;;;;2.53;2.03;;;;;;;;;;5083859;28;20035;-81
2021/05/28 14:07:25;;;;;;;2.88;1.95;;;;;;;;;;5064228;28;20036;-80
2021/05/28 14:09:52;;;;;;;2.72;1.75;;;;;;;;;;5063836;28;20021;-81
2021/05/28 14:12:18;;;;;;;3.33;1.60;;;;;;;;;;5063260;28;20029;-82
2021/05/28 14:14:44;;;;;;;3.40;1.60;;;;;;;;;;5063861;28;20033;-80
2021/05/28 14:17:10;;;;;;;3.50;2.10;;;;;;;;;;5062645;28;20045;-81
2021/05/28 14:19:36;;;;;;;4.78;1.88;;;;;;;;;;5063605;28;20075;-81
2021/05/28 14:22:03;;;;;;;3.55;2.20;;;;;;;;;;5067935;28;20105;-80
2021/05/28 14:24:29;;;;;;;3.83;2.53;;;;;;;;;;5071645;28;20096;-81
2021/05/28 14:26:55;;;;;;;5.18;2.33;;;;;;;;;;5086148;28;20037;-82
2021/05/28 14:29:21;;;;;;;2.92;2.00;;;;;;;;;;5070839;28;20457;-81
2021/05/28 14:31:47;;;;;;;1.92;1.48;;;;;;;;;;5072233;28;20031;-81
2021/05/28 14:34:13;;;;;;;4.85;2.53;;;;;;;;;;5070873;28;20024;-82
2021/05/28 14:36:39;;;;;;;4.25;2.38;;;;;;;;;;5067839;28;20021;-81
2021/05/28 14:39:07;;;;;;;4.57;2.50;;;;;;;;;;5063625;28;20044;-80
2021/05/28 14:41:33;;;;;;;3.80;3.03;;;;;;;;;;5062965;28;20386;-80
2021/05/28 14:44:00;;;;;;;5.03;2.58;;;;;;;;;;5064196;28;20428;-81
2021/05/28 14:46:26;;;;;;;2.10;1.90;;;;;;;;;;5065256;28;20100;-81